sensor_id;sensor_type;location;lat;lon;timestamp;temperature;humidity
15384;DHT22;7790;53.022;12.968;2022-10-16T00:00:24;19.70;60.80
15384;DHT22;7790;53.022;12.968;2022-10-16T00:04:24;19.70;60.80
15384;DHT22;7790;53.022;12.968;2022-10-16T00:08:25;19.70;60.90
15384;DHT22;7790;53.022;12.968;2022-10-16T00:12:26;19.70;60.80
15384;DHT22;7790;53.022;12.968;2022-10-16T00:16:28;19.60;60.90
15384;DHT22;7790;53.022;12.968;2022-10-16T00:20:29;19.60;60.80
15384;DHT22;7790;53.022;12.968;2022-10-16T00:24:31;19.60;60.80
15384;DHT22;7790;53.022;12.968;2022-10-16T00:28:33;19.60;60.70
15384;DHT22;7790;53.022;12.968;2022-10-16T00:32:35;19.60;61.00
15384;DHT22;7790;53.022;12.968;2022-10-16T00:36:35;19.60;61.20
15384;DHT22;7790;53.022;12.968;2022-10-16T00:40:36;19.60;61.20
15384;DHT22;7790;53.022;12.968;2022-10-16T00:44:50;19.60;61.30
15384;DHT22;7790;53.022;12.968;2022-10-16T00:53:03;19.60;61.40
15384;DHT22;7790;53.022;12.968;2022-10-16T00:57:05;19.60;61.40
15384;DHT22;7790;53.022;12.968;2022-10-16T01:01:07;19.60;61.20
15384;DHT22;7790;53.022;12.968;2022-10-16T01:05:08;19.60;61.40
15384;DHT22;7790;53.022;12.968;2022-10-16T01:09:27;19.60;61.40
15384;DHT22;7790;53.022;12.968;2022-10-16T01:13:38;19.60;61.40
15384;DHT22;7790;53.022;12.968;2022-10-16T01:17:48;19.50;61.20
15384;DHT22;7790;53.022;12.968;2022-10-16T01:21:51;19.50;61.30
15384;DHT22;7790;53.022;12.968;2022-10-16T01:26:09;19.50;61.30
15384;DHT22;7790;53.022;12.968;2022-10-16T01:30:23;19.50;61.30
15384;DHT22;7790;53.022;12.968;2022-10-16T01:34:32;19.50;61.10
15384;DHT22;7790;53.022;12.968;2022-10-16T01:38:36;19.50;61.10
15384;DHT22;7790;53.022;12.968;2022-10-16T01:42:52;19.50;61.20
15384;DHT22;7790;53.022;12.968;2022-10-16T01:46:55;19.50;61.30
15384;DHT22;7790;53.022;12.968;2022-10-16T01:51:06;19.50;61.10
15384;DHT22;7790;53.022;12.968;2022-10-16T01:55:10;19.50;61.10
15384;DHT22;7790;53.022;12.968;2022-10-16T01:59:16;19.50;61.10
15384;DHT22;7790;53.022;12.968;2022-10-16T02:03:19;19.40;61.10
15384;DHT22;7790;53.022;12.968;2022-10-16T02:07:20;19.50;61.10
15384;DHT22;7790;53.022;12.968;2022-10-16T02:11:21;19.50;61.20
15384;DHT22;7790;53.022;12.968;2022-10-16T02:15:22;19.50;61.20
15384;DHT22;7790;53.022;12.968;2022-10-16T02:19:23;19.40;61.20
15384;DHT22;7790;53.022;12.968;2022-10-16T02:24:03;19.50;61.30
15384;DHT22;7790;53.022;12.968;2022-10-16T02:28:18;19.40;61.20
15384;DHT22;7790;53.022;12.968;2022-10-16T02:32:24;19.40;61.10
15384;DHT22;7790;53.022;12.968;2022-10-16T02:36:27;19.40;61.00
15384;DHT22;7790;53.022;12.968;2022-10-16T02:40:28;19.50;61.10
15384;DHT22;7790;53.022;12.968;2022-10-16T02:44:29;19.40;61.10
15384;DHT22;7790;53.022;12.968;2022-10-16T02:48:30;19.40;61.30
15384;DHT22;7790;53.022;12.968;2022-10-16T02:52:31;19.40;61.30
15384;DHT22;7790;53.022;12.968;2022-10-16T02:56:32;19.40;61.20
15384;DHT22;7790;53.022;12.968;2022-10-16T03:00:33;19.40;61.20
15384;DHT22;7790;53.022;12.968;2022-10-16T03:04:33;19.40;61.30
15384;DHT22;7790;53.022;12.968;2022-10-16T03:08:34;19.40;61.10
15384;DHT22;7790;53.022;12.968;2022-10-16T03:12:35;19.40;61.30
15384;DHT22;7790;53.022;12.968;2022-10-16T03:16:36;19.40;61.20
15384;DHT22;7790;53.022;12.968;2022-10-16T03:20:37;19.40;61.10
15384;DHT22;7790;53.022;12.968;2022-10-16T03:24:38;19.40;61.20
15384;DHT22;7790;53.022;12.968;2022-10-16T03:28:39;19.40;61.10
15384;DHT22;7790;53.022;12.968;2022-10-16T03:32:39;19.40;61.20
15384;DHT22;7790;53.022;12.968;2022-10-16T03:36:40;19.30;61.40
15384;DHT22;7790;53.022;12.968;2022-10-16T03:40:41;19.30;61.30
15384;DHT22;7790;53.022;12.968;2022-10-16T03:44:42;19.30;61.30
15384;DHT22;7790;53.022;12.968;2022-10-16T03:48:43;19.30;61.10
15384;DHT22;7790;53.022;12.968;2022-10-16T03:52:45;19.30;61.20
15384;DHT22;7790;53.022;12.968;2022-10-16T03:56:46;19.30;61.50
15384;DHT22;7790;53.022;12.968;2022-10-16T04:00:47;19.30;61.30
15384;DHT22;7790;53.022;12.968;2022-10-16T04:04:49;19.30;61.30
15384;DHT22;7790;53.022;12.968;2022-10-16T04:08:49;19.30;61.40
15384;DHT22;7790;53.022;12.968;2022-10-16T04:12:50;19.30;61.30
15384;DHT22;7790;53.022;12.968;2022-10-16T04:16:51;19.30;61.40
15384;DHT22;7790;53.022;12.968;2022-10-16T04:20:53;19.30;61.30
15384;DHT22;7790;53.022;12.968;2022-10-16T04:24:53;19.30;61.30
15384;DHT22;7790;53.022;12.968;2022-10-16T04:28:54;19.30;61.40
15384;DHT22;7790;53.022;12.968;2022-10-16T04:32:55;19.30;61.40
15384;DHT22;7790;53.022;12.968;2022-10-16T04:36:56;19.30;61.40
15384;DHT22;7790;53.022;12.968;2022-10-16T04:40:57;19.30;61.60
15384;DHT22;7790;53.022;12.968;2022-10-16T04:44:58;19.20;61.30
15384;DHT22;7790;53.022;12.968;2022-10-16T04:48:58;19.20;61.40
15384;DHT22;7790;53.022;12.968;2022-10-16T04:52:59;19.20;61.40
15384;DHT22;7790;53.022;12.968;2022-10-16T04:57:00;19.20;61.30
15384;DHT22;7790;53.022;12.968;2022-10-16T05:01:01;19.20;61.60
15384;DHT22;7790;53.022;12.968;2022-10-16T05:05:02;19.20;61.40
15384;DHT22;7790;53.022;12.968;2022-10-16T05:09:03;19.20;61.50
15384;DHT22;7790;53.022;12.968;2022-10-16T05:13:04;19.20;61.40
15384;DHT22;7790;53.022;12.968;2022-10-16T05:17:04;19.20;61.00
15384;DHT22;7790;53.022;12.968;2022-10-16T05:21:05;19.20;60.90
15384;DHT22;7790;53.022;12.968;2022-10-16T05:25:06;19.20;60.90
15384;DHT22;7790;53.022;12.968;2022-10-16T05:29:07;19.20;61.00
15384;DHT22;7790;53.022;12.968;2022-10-16T05:33:09;19.20;61.00
15384;DHT22;7790;53.022;12.968;2022-10-16T05:37:10;19.20;61.20
15384;DHT22;7790;53.022;12.968;2022-10-16T05:41:12;19.20;61.20
15384;DHT22;7790;53.022;12.968;2022-10-16T05:45:13;19.20;61.60
15384;DHT22;7790;53.022;12.968;2022-10-16T05:49:14;19.20;61.30
15384;DHT22;7790;53.022;12.968;2022-10-16T05:53:17;19.20;61.50
15384;DHT22;7790;53.022;12.968;2022-10-16T05:57:25;19.20;61.30
15384;DHT22;7790;53.022;12.968;2022-10-16T06:01:26;19.20;61.50
15384;DHT22;7790;53.022;12.968;2022-10-16T06:05:27;19.20;61.80
15384;DHT22;7790;53.022;12.968;2022-10-16T06:09:28;19.20;61.50
15384;DHT22;7790;53.022;12.968;2022-10-16T06:13:29;19.20;61.40
15384;DHT22;7790;53.022;12.968;2022-10-16T06:17:29;19.20;61.60
15384;DHT22;7790;53.022;12.968;2022-10-16T06:21:30;19.20;61.70
15384;DHT22;7790;53.022;12.968;2022-10-16T06:25:31;19.20;61.60
15384;DHT22;7790;53.022;12.968;2022-10-16T06:29:32;19.20;61.30
15384;DHT22;7790;53.022;12.968;2022-10-16T06:33:33;19.20;61.30
15384;DHT22;7790;53.022;12.968;2022-10-16T06:37:34;19.20;61.30
15384;DHT22;7790;53.022;12.968;2022-10-16T06:41:35;19.20;61.50
15384;DHT22;7790;53.022;12.968;2022-10-16T06:45:56;19.20;60.80
15384;DHT22;7790;53.022;12.968;2022-10-16T06:49:57;19.20;61.80
15384;DHT22;7790;53.022;12.968;2022-10-16T06:53:58;19.20;61.60
15384;DHT22;7790;53.022;12.968;2022-10-16T06:57:59;19.20;61.70
15384;DHT22;7790;53.022;12.968;2022-10-16T07:02:00;19.20;61.60
15384;DHT22;7790;53.022;12.968;2022-10-16T07:06:06;19.20;61.50
15384;DHT22;7790;53.022;12.968;2022-10-16T07:10:08;19.20;61.70
15384;DHT22;7790;53.022;12.968;2022-10-16T07:14:16;19.20;61.50
15384;DHT22;7790;53.022;12.968;2022-10-16T07:18:17;19.20;61.80
15384;DHT22;7790;53.022;12.968;2022-10-16T07:22:17;19.20;61.50
15384;DHT22;7790;53.022;12.968;2022-10-16T07:26:18;19.20;61.60
15384;DHT22;7790;53.022;12.968;2022-10-16T07:30:20;19.20;61.60
15384;DHT22;7790;53.022;12.968;2022-10-16T07:34:21;19.20;61.50
15384;DHT22;7790;53.022;12.968;2022-10-16T07:38:22;19.20;61.10
15384;DHT22;7790;53.022;12.968;2022-10-16T07:42:23;19.20;61.60
15384;DHT22;7790;53.022;12.968;2022-10-16T07:46:24;19.20;62.40
15384;DHT22;7790;53.022;12.968;2022-10-16T07:50:25;19.20;62.10
15384;DHT22;7790;53.022;12.968;2022-10-16T07:54:26;19.20;62.00
15384;DHT22;7790;53.022;12.968;2022-10-16T07:58:27;19.20;61.70
15384;DHT22;7790;53.022;12.968;2022-10-16T08:02:28;19.20;61.50
15384;DHT22;7790;53.022;12.968;2022-10-16T08:06:35;19.20;61.60
15384;DHT22;7790;53.022;12.968;2022-10-16T08:10:37;19.20;62.10
15384;DHT22;7790;53.022;12.968;2022-10-16T08:14:38;19.20;61.50
15384;DHT22;7790;53.022;12.968;2022-10-16T08:18:40;19.20;61.10
15384;DHT22;7790;53.022;12.968;2022-10-16T08:22:41;19.20;60.80
15384;DHT22;7790;53.022;12.968;2022-10-16T08:26:42;19.20;60.80
15384;DHT22;7790;53.022;12.968;2022-10-16T08:30:42;19.20;60.50
15384;DHT22;7790;53.022;12.968;2022-10-16T08:34:43;19.20;60.80
15384;DHT22;7790;53.022;12.968;2022-10-16T08:38:47;19.30;61.20
15384;DHT22;7790;53.022;12.968;2022-10-16T08:47:26;19.30;61.50
15384;DHT22;7790;53.022;12.968;2022-10-16T08:51:36;19.30;62.20
15384;DHT22;7790;53.022;12.968;2022-10-16T08:55:41;19.40;62.90
15384;DHT22;7790;53.022;12.968;2022-10-16T08:59:43;19.40;63.50
15384;DHT22;7790;53.022;12.968;2022-10-16T09:12:17;19.50;64.30
15384;DHT22;7790;53.022;12.968;2022-10-16T09:16:27;19.50;64.10
15384;DHT22;7790;53.022;12.968;2022-10-16T09:24:48;19.50;63.70
15384;DHT22;7790;53.022;12.968;2022-10-16T09:28:52;19.50;63.80
15384;DHT22;7790;53.022;12.968;2022-10-16T09:32:53;19.50;63.80
15384;DHT22;7790;53.022;12.968;2022-10-16T09:36:57;19.50;63.40
15384;DHT22;7790;53.022;12.968;2022-10-16T09:41:14;19.50;63.10
15384;DHT22;7790;53.022;12.968;2022-10-16T09:45:23;19.60;63.00
15384;DHT22;7790;53.022;12.968;2022-10-16T09:49:26;19.60;62.90
15384;DHT22;7790;53.022;12.968;2022-10-16T09:57:58;19.60;62.90
15384;DHT22;7790;53.022;12.968;2022-10-16T10:02:03;19.60;62.70
15384;DHT22;7790;53.022;12.968;2022-10-16T10:06:24;19.60;62.60
15384;DHT22;7790;53.022;12.968;2022-10-16T10:10:30;19.60;62.60
15384;DHT22;7790;53.022;12.968;2022-10-16T10:18:38;19.70;62.30
15384;DHT22;7790;53.022;12.968;2022-10-16T10:22:44;19.70;62.20
15384;DHT22;7790;53.022;12.968;2022-10-16T10:27:07;19.80;62.50
15384;DHT22;7790;53.022;12.968;2022-10-16T10:31:37;19.90;61.60
15384;DHT22;7790;53.022;12.968;2022-10-16T10:40:00;20.00;61.00
15384;DHT22;7790;53.022;12.968;2022-10-16T11:10:52;20.00;57.80
15384;DHT22;7790;53.022;12.968;2022-10-16T11:15:13;19.90;56.70
15384;DHT22;7790;53.022;12.968;2022-10-16T11:23:37;19.80;57.10
15384;DHT22;7790;53.022;12.968;2022-10-16T11:27:57;19.80;57.70
15384;DHT22;7790;53.022;12.968;2022-10-16T11:32:05;19.80;58.80
15384;DHT22;7790;53.022;12.968;2022-10-16T11:40:28;19.70;58.20
15384;DHT22;7790;53.022;12.968;2022-10-16T11:44:57;19.70;58.00
15384;DHT22;7790;53.022;12.968;2022-10-16T11:49:15;19.70;58.10
15384;DHT22;7790;53.022;12.968;2022-10-16T12:02:30;19.60;58.20
15384;DHT22;7790;53.022;12.968;2022-10-16T12:06:40;19.60;57.30
15384;DHT22;7790;53.022;12.968;2022-10-16T12:10:44;19.60;57.40
15384;DHT22;7790;53.022;12.968;2022-10-16T12:14:46;19.60;57.00
15384;DHT22;7790;53.022;12.968;2022-10-16T12:18:47;19.60;56.60
15384;DHT22;7790;53.022;12.968;2022-10-16T12:26:56;19.60;57.20
15384;DHT22;7790;53.022;12.968;2022-10-16T12:31:02;19.50;56.40
15384;DHT22;7790;53.022;12.968;2022-10-16T12:35:06;19.50;56.70
15384;DHT22;7790;53.022;12.968;2022-10-16T12:39:23;19.50;56.90
15384;DHT22;7790;53.022;12.968;2022-10-16T12:43:28;19.50;56.80
15384;DHT22;7790;53.022;12.968;2022-10-16T12:47:46;19.50;56.60
15384;DHT22;7790;53.022;12.968;2022-10-16T12:51:47;19.50;56.50
15384;DHT22;7790;53.022;12.968;2022-10-16T13:04:18;19.50;55.90
15384;DHT22;7790;53.022;12.968;2022-10-16T13:08:47;19.60;56.30
15384;DHT22;7790;53.022;12.968;2022-10-16T13:13:32;19.60;55.90
15384;DHT22;7790;53.022;12.968;2022-10-16T13:22:15;19.70;55.20
15384;DHT22;7790;53.022;12.968;2022-10-16T13:26:40;19.70;55.10
15384;DHT22;7790;53.022;12.968;2022-10-16T13:30:50;19.80;54.40
15384;DHT22;7790;53.022;12.968;2022-10-16T13:34:52;19.80;54.10
15384;DHT22;7790;53.022;12.968;2022-10-16T13:39:23;19.80;54.00
15384;DHT22;7790;53.022;12.968;2022-10-16T13:43:26;19.90;53.90
15384;DHT22;7790;53.022;12.968;2022-10-16T13:47:29;20.00;53.70
15384;DHT22;7790;53.022;12.968;2022-10-16T13:51:31;20.10;53.70
15384;DHT22;7790;53.022;12.968;2022-10-16T13:55:32;20.20;53.70
15384;DHT22;7790;53.022;12.968;2022-10-16T13:59:35;20.30;53.20
15384;DHT22;7790;53.022;12.968;2022-10-16T14:03:36;20.30;52.50
15384;DHT22;7790;53.022;12.968;2022-10-16T14:07:38;20.40;52.70
15384;DHT22;7790;53.022;12.968;2022-10-16T14:11:46;20.50;53.30
15384;DHT22;7790;53.022;12.968;2022-10-16T14:15:51;20.50;53.70
15384;DHT22;7790;53.022;12.968;2022-10-16T14:19:55;20.60;53.70
15384;DHT22;7790;53.022;12.968;2022-10-16T14:23:56;20.70;54.10
15384;DHT22;7790;53.022;12.968;2022-10-16T14:28:15;20.80;54.30
15384;DHT22;7790;53.022;12.968;2022-10-16T14:32:23;21.00;54.60
15384;DHT22;7790;53.022;12.968;2022-10-16T14:36:26;21.20;54.70
15384;DHT22;7790;53.022;12.968;2022-10-16T14:40:33;21.30;54.70
15384;DHT22;7790;53.022;12.968;2022-10-16T14:44:35;21.40;54.50
15384;DHT22;7790;53.022;12.968;2022-10-16T14:48:41;21.50;54.60
15384;DHT22;7790;53.022;12.968;2022-10-16T14:52:42;21.60;54.90
15384;DHT22;7790;53.022;12.968;2022-10-16T14:56:53;21.70;54.90
15384;DHT22;7790;53.022;12.968;2022-10-16T15:00:55;21.80;55.00
15384;DHT22;7790;53.022;12.968;2022-10-16T15:08:58;21.90;54.40
15384;DHT22;7790;53.022;12.968;2022-10-16T15:12:59;22.00;54.90
15384;DHT22;7790;53.022;12.968;2022-10-16T15:16:59;22.00;55.10
15384;DHT22;7790;53.022;12.968;2022-10-16T15:21:00;22.10;55.10
15384;DHT22;7790;53.022;12.968;2022-10-16T15:25:01;22.10;55.30
15384;DHT22;7790;53.022;12.968;2022-10-16T15:29:02;22.20;54.90
15384;DHT22;7790;53.022;12.968;2022-10-16T15:33:04;22.20;54.90
15384;DHT22;7790;53.022;12.968;2022-10-16T15:37:05;22.30;54.40
15384;DHT22;7790;53.022;12.968;2022-10-16T15:41:06;22.30;54.40
15384;DHT22;7790;53.022;12.968;2022-10-16T15:45:07;22.40;54.70
15384;DHT22;7790;53.022;12.968;2022-10-16T15:49:09;22.50;54.60
15384;DHT22;7790;53.022;12.968;2022-10-16T15:53:11;22.50;54.60
15384;DHT22;7790;53.022;12.968;2022-10-16T15:57:12;22.60;54.40
15384;DHT22;7790;53.022;12.968;2022-10-16T16:01:12;22.60;54.40
15384;DHT22;7790;53.022;12.968;2022-10-16T16:05:13;22.60;54.60
15384;DHT22;7790;53.022;12.968;2022-10-16T16:09:14;22.60;54.60
15384;DHT22;7790;53.022;12.968;2022-10-16T16:13:15;22.50;54.70
15384;DHT22;7790;53.022;12.968;2022-10-16T16:17:16;22.50;55.10
15384;DHT22;7790;53.022;12.968;2022-10-16T16:21:17;22.50;54.70
15384;DHT22;7790;53.022;12.968;2022-10-16T16:25:18;22.50;54.70
15384;DHT22;7790;53.022;12.968;2022-10-16T16:29:19;22.50;54.70
15384;DHT22;7790;53.022;12.968;2022-10-16T16:33:20;22.50;54.80
15384;DHT22;7790;53.022;12.968;2022-10-16T16:37:21;22.20;52.70
15384;DHT22;7790;53.022;12.968;2022-10-16T16:41:24;22.00;51.80
15384;DHT22;7790;53.022;12.968;2022-10-16T16:45:26;21.90;53.30
15384;DHT22;7790;53.022;12.968;2022-10-16T16:49:27;22.00;54.60
15384;DHT22;7790;53.022;12.968;2022-10-16T16:53:28;22.10;54.60
15384;DHT22;7790;53.022;12.968;2022-10-16T16:57:28;22.10;54.50
15384;DHT22;7790;53.022;12.968;2022-10-16T17:01:30;22.10;54.50
15384;DHT22;7790;53.022;12.968;2022-10-16T17:05:31;22.10;54.60
15384;DHT22;7790;53.022;12.968;2022-10-16T17:09:32;22.10;54.60
15384;DHT22;7790;53.022;12.968;2022-10-16T17:13:34;22.10;54.60
15384;DHT22;7790;53.022;12.968;2022-10-16T17:17:37;22.10;54.60
15384;DHT22;7790;53.022;12.968;2022-10-16T17:21:39;22.10;54.60
15384;DHT22;7790;53.022;12.968;2022-10-16T17:25:41;22.10;54.60
15384;DHT22;7790;53.022;12.968;2022-10-16T17:29:43;22.10;54.70
15384;DHT22;7790;53.022;12.968;2022-10-16T17:33:44;22.20;55.10
15384;DHT22;7790;53.022;12.968;2022-10-16T17:37:46;22.20;54.70
15384;DHT22;7790;53.022;12.968;2022-10-16T17:41:47;22.20;54.60
15384;DHT22;7790;53.022;12.968;2022-10-16T17:45:48;22.20;55.10
15384;DHT22;7790;53.022;12.968;2022-10-16T17:49:50;22.20;53.90
15384;DHT22;7790;53.022;12.968;2022-10-16T17:53:55;22.20;54.10
15384;DHT22;7790;53.022;12.968;2022-10-16T17:57:56;22.20;54.30
15384;DHT22;7790;53.022;12.968;2022-10-16T18:01:57;22.30;54.30
15384;DHT22;7790;53.022;12.968;2022-10-16T18:06:00;22.30;54.30
15384;DHT22;7790;53.022;12.968;2022-10-16T18:10:03;22.40;53.90
15384;DHT22;7790;53.022;12.968;2022-10-16T18:14:11;22.40;54.30
15384;DHT22;7790;53.022;12.968;2022-10-16T18:18:12;22.50;54.20
15384;DHT22;7790;53.022;12.968;2022-10-16T18:22:14;22.50;54.20
15384;DHT22;7790;53.022;12.968;2022-10-16T18:26:15;22.50;54.20
15384;DHT22;7790;53.022;12.968;2022-10-16T18:30:16;22.60;54.10
15384;DHT22;7790;53.022;12.968;2022-10-16T18:34:17;22.60;54.10
15384;DHT22;7790;53.022;12.968;2022-10-16T18:42:20;22.60;53.70
15384;DHT22;7790;53.022;12.968;2022-10-16T18:46:23;22.60;54.10
15384;DHT22;7790;53.022;12.968;2022-10-16T18:50:24;22.70;54.10
15384;DHT22;7790;53.022;12.968;2022-10-16T18:54:25;22.60;54.10
15384;DHT22;7790;53.022;12.968;2022-10-16T18:58:26;22.60;54.10
15384;DHT22;7790;53.022;12.968;2022-10-16T19:02:27;22.60;54.10
15384;DHT22;7790;53.022;12.968;2022-10-16T19:06:28;22.60;54.10
15384;DHT22;7790;53.022;12.968;2022-10-16T19:10:29;22.60;54.20
15384;DHT22;7790;53.022;12.968;2022-10-16T19:14:30;22.60;54.30
15384;DHT22;7790;53.022;12.968;2022-10-16T19:18:32;22.60;54.40
15384;DHT22;7790;53.022;12.968;2022-10-16T19:22:38;22.60;54.80
15384;DHT22;7790;53.022;12.968;2022-10-16T19:26:53;22.60;55.40
15384;DHT22;7790;53.022;12.968;2022-10-16T19:30:54;22.60;55.40
15384;DHT22;7790;53.022;12.968;2022-10-16T19:34:55;22.50;55.80
15384;DHT22;7790;53.022;12.968;2022-10-16T19:39:02;22.50;55.60
15384;DHT22;7790;53.022;12.968;2022-10-16T19:43:04;22.50;55.50
15384;DHT22;7790;53.022;12.968;2022-10-16T19:47:05;22.40;55.30
15384;DHT22;7790;53.022;12.968;2022-10-16T19:51:06;22.40;55.30
15384;DHT22;7790;53.022;12.968;2022-10-16T19:55:10;22.40;55.20
15384;DHT22;7790;53.022;12.968;2022-10-16T19:59:11;22.40;55.10
15384;DHT22;7790;53.022;12.968;2022-10-16T20:03:13;22.40;55.10
15384;DHT22;7790;53.022;12.968;2022-10-16T20:07:14;22.40;55.00
15384;DHT22;7790;53.022;12.968;2022-10-16T20:11:17;22.40;54.90
15384;DHT22;7790;53.022;12.968;2022-10-16T20:15:19;22.40;54.90
15384;DHT22;7790;53.022;12.968;2022-10-16T20:19:20;22.30;54.80
15384;DHT22;7790;53.022;12.968;2022-10-16T20:23:21;22.30;54.70
15384;DHT22;7790;53.022;12.968;2022-10-16T20:27:25;22.30;54.60
15384;DHT22;7790;53.022;12.968;2022-10-16T20:31:29;22.30;54.60
15384;DHT22;7790;53.022;12.968;2022-10-16T20:35:35;22.30;54.60
15384;DHT22;7790;53.022;12.968;2022-10-16T20:39:36;22.30;54.60
15384;DHT22;7790;53.022;12.968;2022-10-16T20:43:46;22.30;54.60
15384;DHT22;7790;53.022;12.968;2022-10-16T20:47:46;22.20;55.00
15384;DHT22;7790;53.022;12.968;2022-10-16T20:51:47;22.20;54.50
15384;DHT22;7790;53.022;12.968;2022-10-16T20:55:49;22.20;54.50
15384;DHT22;7790;53.022;12.968;2022-10-16T20:59:50;22.20;54.50
15384;DHT22;7790;53.022;12.968;2022-10-16T21:03:57;22.10;54.50
15384;DHT22;7790;53.022;12.968;2022-10-16T21:07:59;22.10;54.50
15384;DHT22;7790;53.022;12.968;2022-10-16T21:12:00;22.10;54.50
15384;DHT22;7790;53.022;12.968;2022-10-16T21:16:01;22.10;54.60
15384;DHT22;7790;53.022;12.968;2022-10-16T21:20:03;22.00;54.60
15384;DHT22;7790;53.022;12.968;2022-10-16T21:24:04;22.00;54.60
15384;DHT22;7790;53.022;12.968;2022-10-16T21:28:05;22.00;54.60
15384;DHT22;7790;53.022;12.968;2022-10-16T21:32:06;22.00;54.70
15384;DHT22;7790;53.022;12.968;2022-10-16T21:36:22;22.00;54.70
15384;DHT22;7790;53.022;12.968;2022-10-16T21:40:23;21.90;54.70
15384;DHT22;7790;53.022;12.968;2022-10-16T21:44:24;21.90;54.70
15384;DHT22;7790;53.022;12.968;2022-10-16T21:48:24;21.90;54.70
15384;DHT22;7790;53.022;12.968;2022-10-16T21:52:25;21.90;54.70
15384;DHT22;7790;53.022;12.968;2022-10-16T21:56:27;21.90;54.70
15384;DHT22;7790;53.022;12.968;2022-10-16T22:00:28;21.80;54.70
15384;DHT22;7790;53.022;12.968;2022-10-16T22:04:29;21.80;54.70
15384;DHT22;7790;53.022;12.968;2022-10-16T22:08:29;21.80;54.70
15384;DHT22;7790;53.022;12.968;2022-10-16T22:12:32;21.70;54.70
15384;DHT22;7790;53.022;12.968;2022-10-16T22:16:34;21.80;54.80
15384;DHT22;7790;53.022;12.968;2022-10-16T22:20:35;21.70;54.80
15384;DHT22;7790;53.022;12.968;2022-10-16T22:24:35;21.70;54.80
15384;DHT22;7790;53.022;12.968;2022-10-16T22:28:38;21.70;54.80
15384;DHT22;7790;53.022;12.968;2022-10-16T22:32:39;21.60;54.70
15384;DHT22;7790;53.022;12.968;2022-10-16T22:36:40;21.70;54.80
15384;DHT22;7790;53.022;12.968;2022-10-16T22:40:40;21.60;54.80
15384;DHT22;7790;53.022;12.968;2022-10-16T22:44:41;21.60;54.80
15384;DHT22;7790;53.022;12.968;2022-10-16T22:48:42;21.60;54.80
15384;DHT22;7790;53.022;12.968;2022-10-16T22:52:43;21.60;54.80
15384;DHT22;7790;53.022;12.968;2022-10-16T22:56:44;21.60;54.80
15384;DHT22;7790;53.022;12.968;2022-10-16T23:00:45;21.50;54.80
15384;DHT22;7790;53.022;12.968;2022-10-16T23:04:46;21.50;54.80
15384;DHT22;7790;53.022;12.968;2022-10-16T23:08:51;21.50;54.80
15384;DHT22;7790;53.022;12.968;2022-10-16T23:12:52;21.50;54.80
15384;DHT22;7790;53.022;12.968;2022-10-16T23:16:53;21.50;54.80
15384;DHT22;7790;53.022;12.968;2022-10-16T23:20:54;21.40;54.80
15384;DHT22;7790;53.022;12.968;2022-10-16T23:24:54;21.50;54.80
15384;DHT22;7790;53.022;12.968;2022-10-16T23:28:56;21.40;54.80
15384;DHT22;7790;53.022;12.968;2022-10-16T23:32:57;21.40;54.90
15384;DHT22;7790;53.022;12.968;2022-10-16T23:36:58;21.40;54.90
15384;DHT22;7790;53.022;12.968;2022-10-16T23:40:59;21.40;54.90
15384;DHT22;7790;53.022;12.968;2022-10-16T23:45:00;21.40;54.90
15384;DHT22;7790;53.022;12.968;2022-10-16T23:49:01;21.40;54.90
15384;DHT22;7790;53.022;12.968;2022-10-16T23:53:02;21.30;54.90
15384;DHT22;7790;53.022;12.968;2022-10-16T23:57:06;21.30;54.90
